Time;durP1;ratioP1;P1;durP2;ratioP2;P2;SDS_P1;SDS_P2;PMS_P1;PMS_P2;Temp;Humidity;BMP_temperature;BMP_pressure;BME280_temperature;BME280_humidity;BME280_pressure;Samples;Min_cycle;Max_cycle;Signal;HPM_P1;HPM_P2
2024/01/07 00:00:12;;;;;;;6.78;4.70;;;;;;;5.07;100.00;100013.94;5019416;28;20053;-71
2024/01/07 00:02:41;;;;;;;5.55;4.47;;;;;;;5.09;100.00;100023.50;5021196;28;20140;-72
2024/01/07 00:05:09;;;;;;;7.20;4.13;;;;;;;5.06;100.00;100025.34;5015526;28;20087;-69
2024/01/07 00:07:37;;;;;;;7.10;4.63;;;;;;;5.02;100.00;100016.75;4999105;28;20045;-70
2024/01/07 00:10:06;;;;;;;5.10;3.92;;;;;;;5.06;100.00;100017.47;5022623;28;20056;-70
2024/01/07 00:12:35;;;;;;;5.55;4.10;;;;;;;5.05;100.00;100014.00;5006863;28;20107;-71
2024/01/07 00:15:05;;;;;;;5.95;4.60;;;;;;;5.05;100.00;100016.63;5028743;28;20070;-71
2024/01/07 00:17:38;;;;;;;7.30;4.53;;;;;;;5.05;100.00;100021.88;5037982;28;20041;-69
2024/01/07 00:20:08;;;;;;;6.63;4.47;;;;;;;5.07;100.00;100030.56;5025445;28;20056;-73
2024/01/07 00:22:36;;;;;;;5.55;4.20;;;;;;;5.06;100.00;100033.22;5048264;28;20054;-72
2024/01/07 00:25:05;;;;;;;5.85;4.15;;;;;;;5.02;100.00;100026.38;5027934;28;20155;-71
2024/01/07 00:27:35;;;;;;;7.25;4.65;;;;;;;4.98;100.00;100033.47;5024545;28;20049;-72
2024/01/07 00:30:04;;;;;;;5.77;4.40;;;;;;;4.89;100.00;100023.22;5039664;28;20057;-71
2024/01/07 00:32:33;;;;;;;5.55;4.07;;;;;;;4.98;100.00;100033.47;5013653;28;20092;-71
2024/01/07 00:35:06;;;;;;;6.30;4.45;;;;;;;4.89;100.00;100025.84;5025047;28;20457;-71
2024/01/07 00:37:34;;;;;;;7.10;4.32;;;;;;;4.84;100.00;100020.78;5021423;28;20042;-71
2024/01/07 00:40:04;;;;;;;6.55;4.70;;;;;;;4.90;100.00;100036.31;5020041;28;20053;-70
2024/01/07 00:42:34;;;;;;;6.80;4.22;;;;;;;4.92;100.00;100038.88;5020263;28;20069;-71
2024/01/07 00:45:03;;;;;;;5.75;3.97;;;;;;;4.93;100.00;100043.22;5019030;28;20045;-72
2024/01/07 00:47:33;;;;;;;6.15;4.25;;;;;;;4.94;100.00;100031.84;5031071;28;20174;-71
2024/01/07 00:50:03;;;;;;;;;;;;;;;4.87;100.00;100046.91;5014831;28;20046;-72
2024/01/07 00:52:32;;;;;;;5.05;3.85;;;;;;;4.88;100.00;100040.75;5038304;28;19963;-71
2024/01/07 00:55:03;;;;;;;5.60;4.00;;;;;;;4.83;100.00;100047.03;5033708;28;20140;-71
2024/01/07 00:57:32;;;;;;;5.43;4.18;;;;;;;4.85;100.00;100047.88;5019123;28;20046;-71
2024/01/07 01:00:01;;;;;;;5.60;3.72;;;;;;;4.83;100.00;100047.91;5017864;28;20502;-70
2024/01/07 01:02:29;;;;;;;4.60;3.40;;;;;;;4.84;100.00;100056.63;5007932;28;20117;-72
2024/01/07 01:04:57;;;;;;;5.07;3.72;;;;;;;4.82;100.00;100056.69;5034746;28;20618;-72
2024/01/07 01:07:31;;;;;;;3.75;3.03;;;;;;;4.83;100.00;100062.78;5018715;28;20045;-75
2024/01/07 01:10:00;;;;;;;4.43;3.30;;;;;;;4.82;100.00;100055.81;5033525;28;20562;-73
2024/01/07 01:12:29;;;;;;;4.97;3.65;;;;;;;4.85;100.00;100068.84;5021773;28;20064;-71
2024/01/07 01:14:57;;;;;;;3.97;3.08;;;;;;;4.87;100.00;100069.66;5018521;28;20072;-70
2024/01/07 01:17:28;;;;;;;5.15;3.55;;;;;;;4.87;100.00;100074.91;5034990;28;20053;-72
2024/01/07 01:19:58;;;;;;;5.00;3.70;;;;;;;4.82;100.00;100071.56;5000334;28;20048;-71
2024/01/07 01:22:26;;;;;;;5.55;3.15;;;;;;;4.82;100.00;100074.19;5037043;28;20167;-72
2024/01/07 01:25:01;;;;;;;3.90;3.28;;;;;;;4.80;100.00;100082.09;5033041;28;20045;-73
2024/01/07 01:27:29;;;;;;;4.97;3.65;;;;;;;4.78;100.00;100080.41;5019331;28;21323;-73
2024/01/07 01:29:58;;;;;;;4.97;3.72;;;;;;;4.72;100.00;100078.81;5013245;28;20057;-72
2024/01/07 01:32:28;;;;;;;6.10;3.30;;;;;;;4.78;100.00;100088.28;5022642;28;20081;-71
2024/01/07 01:34:56;;;;;;;4.18;3.28;;;;;;;4.81;100.00;100085.56;5018942;28;20050;-71
2024/01/07 01:37:25;;;;;;;4.68;3.22;;;;;;;4.78;100.00;100090.91;5036884;28;20050;-71
2024/01/07 01:40:02;;;;;;;4.15;3.33;;;;;;;4.75;100.00;100088.34;5016975;28;20856;-71
2024/01/07 01:42:32;;;;;;;4.05;3.10;;;;;;;4.77;100.00;100089.19;5023120;28;20049;-71
2024/01/07 01:45:02;;;;;;;4.88;3.22;;;;;;;4.76;100.00;100092.69;5035090;28;20049;-70
2024/01/07 01:47:34;;;;;;;5.30;3.80;;;;;;;4.74;100.00;100086.63;5035316;28;20129;-72
2024/01/07 01:50:05;;;;;;;4.57;3.33;;;;;;;4.74;100.00;100086.63;5029248;28;20133;-72
2024/01/07 01:52:36;;;;;;;3.72;2.92;;;;;;;4.68;100.00;100085.06;5038019;28;20050;-71
2024/01/07 01:55:07;;;;;;;4.15;3.03;;;;;;;4.67;100.00;100092.97;5036391;28;20049;-69
2024/01/07 01:57:39;;;;;;;5.07;3.40;;;;;;;4.67;100.00;100098.22;5003456;28;20063;-71
2024/01/07 02:00:10;;;;;;;4.50;2.92;;;;;;;4.66;100.00;100092.13;5035255;28;20045;-72
2024/01/07 02:02:39;;;;;;;4.18;2.92;;;;;;;4.72;100.00;100102.41;5029056;28;20130;-70
2024/01/07 02:05:08;;;;;;;4.95;3.20;;;;;;;4.73;100.00;100082.28;5005492;28;20206;-69
2024/01/07 02:07:37;;;;;;;4.03;2.80;;;;;;;4.76;100.00;100101.44;5026588;28;20114;-71
2024/01/07 02:10:08;;;;;;;3.45;2.95;;;;;;;4.79;100.00;100098.72;5033813;28;20042;-71
2024/01/07 02:12:38;;;;;;;3.83;2.90;;;;;;;4.66;100.00;100071.13;5030900;28;20045;-70
2024/01/07 02:15:07;;;;;;;4.07;2.80;;;;;;;4.72;100.00;100091.09;5022142;28;20073;-71
2024/01/07 02:17:36;;;;;;;3.85;3.03;;;;;;;4.77;100.00;100091.81;5019217;28;21429;-71
2024/01/07 02:20:06;;;;;;;5.65;3.25;;;;;;;4.75;100.00;100101.47;5032276;28;20053;-71
2024/01/07 02:22:34;;;;;;;4.97;3.20;;;;;;;4.73;100.00;100092.78;5007175;28;20128;-73
2024/01/07 02:25:04;;;;;;;3.83;2.70;;;;;;;4.70;100.00;100099.00;5023946;28;20467;-71
2024/01/07 02:27:33;;;;;;;5.03;3.15;;;;;;;4.71;100.00;100092.00;5010898;28;20042;-70
2024/01/07 02:30:01;;;;;;;4.55;3.40;;;;;;;4.71;100.00;100092.00;5044318;28;20072;-72
2024/01/07 02:32:34;;;;;;;7.32;3.72;;;;;;;4.75;100.00;100101.47;5024509;28;20061;-70
2024/01/07 02:35:04;;;;;;;4.30;3.05;;;;;;;4.74;100.00;100099.75;5024545;28;20534;-70
2024/01/07 02:37:36;;;;;;;4.63;3.22;;;;;;;4.70;100.00;100098.13;5023698;28;20046;-71
2024/01/07 02:40:10;;;;;;;5.38;3.53;;;;;;;4.73;100.00;100108.53;5018624;28;20526;-70
2024/01/07 02:42:44;;;;;;;5.60;3.50;;;;;;;4.70;100.00;100116.50;5010190;28;20048;-71
2024/01/07 02:45:13;;;;;;;4.40;2.88;;;;;;;4.69;100.00;100114.78;5041404;28;20042;-71
2024/01/07 02:47:42;;;;;;;4.63;3.10;;;;;;;4.66;100.00;100107.00;5030081;28;20115;-70
2024/01/07 02:50:11;;;;;;;5.72;3.72;;;;;;;4.70;100.00;100113.88;5018176;28;20041;-70
2024/01/07 02:52:40;;;;;;;5.22;3.60;;;;;;;4.65;100.00;100090.38;5041805;28;20053;-72
2024/01/07 02:55:10;;;;;;;4.23;3.20;;;;;;;4.78;100.00;100102.25;5040219;28;21209;-72
2024/01/07 02:57:38;;;;;;;4.90;3.20;;;;;;;4.80;100.00;100105.69;5020425;28;20105;-71
2024/01/07 03:00:09;;;;;;;5.25;3.35;;;;;;;4.81;100.00;100109.19;5032474;28;20083;-73
2024/01/07 03:02:37;;;;;;;5.32;3.70;;;;;;;4.76;100.00;100108.44;5041428;28;20059;-71
2024/01/07 03:05:09;;;;;;;5.25;3.47;;;;;;;4.73;100.00;100112.00;5028917;28;20041;-69
2024/01/07 03:07:39;;;;;;;5.20;3.80;;;;;;;4.71;100.00;100116.47;5029649;28;20068;-71
2024/01/07 03:10:13;;;;;;;5.68;3.95;;;;;;;4.72;100.00;100106.84;5028038;28;20050;-70
2024/01/07 03:12:43;;;;;;;5.38;4.10;;;;;;;4.68;100.00;100110.44;5047401;28;20060;-71
2024/01/07 03:15:12;;;;;;;5.88;3.95;;;;;;;4.71;100.00;100115.59;5052035;28;20045;-71
2024/01/07 03:17:45;;;;;;;9.57;4.70;;;;;;;4.75;100.00;100111.97;5031241;28;20045;-72
2024/01/07 03:20:14;;;;;;;6.50;4.35;;;;;;;4.78;100.00;100117.13;5021977;28;20553;-70
2024/01/07 03:22:42;;;;;;;6.55;4.47;;;;;;;4.74;100.00;100121.59;5033248;28;20110;-71
2024/01/07 03:25:17;;;;;;;6.15;4.30;;;;;;;4.72;100.00;100119.94;5029752;28;20045;-71
2024/01/07 03:27:46;;;;;;;7.25;4.68;;;;;;;4.73;100.00;100117.25;4997163;28;20073;-70
2024/01/07 03:30:15;;;;;;;6.93;4.60;;;;;;;4.70;100.00;100114.75;5018910;28;20038;-70
2024/01/07 03:32:43;;;;;;;7.03;4.80;;;;;;;4.75;100.00;100119.84;5028013;28;20041;-70
2024/01/07 03:35:12;;;;;;;7.68;4.70;;;;;;;4.69;100.00;100114.78;5040606;28;20059;-70
2024/01/07 03:37:42;;;;;;;7.05;4.80;;;;;;;4.72;100.00;100115.53;5043099;28;20083;-71
2024/01/07 03:40:12;;;;;;;8.00;4.90;;;;;;;4.74;100.00;100123.34;5023330;28;20044;-70
2024/01/07 03:42:42;;;;;;;7.85;5.15;;;;;;;4.75;100.00;100127.69;5027668;28;20049;-71
2024/01/07 03:45:11;;;;;;;9.27;4.85;;;;;;;4.71;100.00;100124.31;5041091;28;20049;-71
2024/01/07 03:47:42;;;;;;;9.07;5.20;;;;;;;4.70;100.00;100129.63;5022436;28;20051;-71
2024/01/07 03:50:11;;;;;;;8.60;4.72;;;;;;;4.62;100.00;100127.19;5016412;28;20042;-71
2024/01/07 03:52:39;;;;;;;7.40;5.18;;;;;;;4.53;100.00;100119.56;5032317;28;20164;-71
2024/01/07 03:55:08;;;;;;;8.35;5.22;;;;;;;4.54;100.00;100124.78;5016013;28;20183;-70
2024/01/07 03:57:37;;;;;;;8.10;5.03;;;;;;;4.53;100.00;100128.31;5022082;28;21327;-70
2024/01/07 04:00:09;;;;;;;8.83;5.00;;;;;;;4.56;100.00;100138.69;5030911;28;20053;-72
2024/01/07 04:02:37;;;;;;;7.65;4.82;;;;;;;4.52;100.00;100134.44;5025230;28;20045;-70
2024/01/07 04:05:06;;;;;;;7.82;4.72;;;;;;;4.49;100.00;100134.53;5022610;28;20045;-72
2024/01/07 04:07:36;;;;;;;8.82;4.80;;;;;;;4.44;100.00;100136.41;5021907;28;20232;-71
2024/01/07 04:10:06;;;;;;;7.13;4.68;;;;;;;4.44;100.00;100149.50;5010877;28;20053;-73
2024/01/07 04:12:34;;;;;;;7.60;5.10;;;;;;;4.37;100.00;100136.59;5020462;28;20049;-70
2024/01/07 04:15:04;;;;;;;8.23;5.15;;;;;;;4.37;100.00;100150.56;5035092;28;20259;-70
2024/01/07 04:17:34;;;;;;;8.40;5.18;;;;;;;4.33;100.00;100145.44;5012224;28;20041;-70
2024/01/07 04:20:02;;;;;;;8.75;4.85;;;;;;;4.36;100.00;100150.63;5029754;28;20351;-72
2024/01/07 04:22:31;;;;;;;7.43;4.68;;;;;;;4.27;100.00;100133.34;5038053;28;20045;-71
2024/01/07 04:25:00;;;;;;;8.95;5.03;;;;;;;4.33;100.00;100138.44;5020874;28;20088;-71
2024/01/07 04:27:28;;;;;;;8.35;5.03;;;;;;;4.31;100.00;100137.63;5034163;28;20063;-72
2024/01/07 04:29:57;;;;;;;9.07;5.75;;;;;;;4.36;100.00;100141.00;5017424;28;20045;-70
2024/01/07 04:32:29;;;;;;;9.35;5.80;;;;;;;4.37;100.00;100147.09;5019670;28;20099;-69
2024/01/07 04:34:57;;;;;;;13.05;7.55;;;;;;;4.35;100.00;100152.38;5037908;28;20080;-73
2024/01/07 04:37:25;;;;;;;13.52;6.82;;;;;;;4.37;100.00;100153.19;5019847;28;20053;-70
2024/01/07 04:39:55;;;;;;;13.18;7.38;;;;;;;4.37;100.00;100153.19;5013915;28;20045;-70
2024/01/07 04:42:23;;;;;;;15.40;8.35;;;;;;;4.44;100.00;100170.47;5036386;28;20398;-70
2024/01/07 04:44:52;;;;;;;12.50;8.30;;;;;;;4.41;100.00;100170.56;5018647;28;20045;-71
2024/01/07 04:47:31;;;;;;;14.95;9.20;;;;;;;4.38;100.00;100173.28;5034131;28;20128;-70
2024/01/07 04:50:00;;;;;;;14.88;9.13;;;;;;;4.31;100.00;100163.81;5012317;28;20764;-70
2024/01/07 04:52:30;;;;;;;17.77;9.57;;;;;;;4.40;100.00;100181.97;5017882;28;20111;-70
2024/01/07 04:54:58;;;;;;;15.43;9.68;;;;;;;4.38;100.00;100185.53;5035380;28;20037;-72
2024/01/07 04:57:26;;;;;;;16.98;10.50;;;;;;;4.34;100.00;100176.88;5018316;28;20119;-70
2024/01/07 04:59:55;;;;;;;18.58;10.77;;;;;;;4.42;100.00;100185.38;5011896;28;20037;-72
2024/01/07 05:02:26;;;;;;;14.83;9.70;;;;;;;4.44;100.00;100188.81;5020637;28;20045;-71
2024/01/07 05:04:56;;;;;;;16.90;10.23;;;;;;;4.50;100.00;100196.56;5022544;28;20041;-71
2024/01/07 05:07:25;;;;;;;16.23;10.30;;;;;;;4.53;100.00;100198.25;5018512;28;20041;-71
2024/01/07 05:09:55;;;;;;;18.73;10.77;;;;;;;4.55;100.00;100193.81;5015496;28;20056;-69
2024/01/07 05:12:25;;;;;;;15.80;10.35;;;;;;;4.55;100.00;100199.06;5039027;28;20453;-70
2024/01/07 05:14:53;;;;;;;15.37;10.47;;;;;;;4.30;100.00;100156.88;5019966;28;20038;-71
2024/01/07 05:17:25;;;;;;;17.58;10.25;;;;;;;4.54;100.00;100207.84;5038000;28;20034;-69
2024/01/07 05:19:54;;;;;;;17.42;10.10;;;;;;;4.56;100.00;100209.50;5017775;28;20077;-70
2024/01/07 05:22:25;;;;;;;17.33;10.70;;;;;;;4.52;100.00;100210.50;5019137;28;20050;-70
2024/01/07 05:24:54;;;;;;;15.45;10.40;;;;;;;4.56;100.00;100221.78;5036149;28;20042;-71
2024/01/07 05:27:23;;;;;;;16.15;10.68;;;;;;;4.56;100.00;100227.84;5035496;28;20083;-71
2024/01/07 05:29:54;;;;;;;15.32;10.23;;;;;;;4.56;100.00;100230.47;5014743;28;20050;-71
2024/01/07 05:32:23;;;;;;;19.13;10.85;;;;;;;4.58;100.00;100233.06;5021894;28;20048;-71
2024/01/07 05:34:51;;;;;;;17.17;10.45;;;;;;;4.65;100.00;100233.78;5018846;28;20686;-71
2024/01/07 05:37:19;;;;;;;16.67;10.95;;;;;;;4.58;100.00;100241.78;5039912;28;20065;-71
2024/01/07 05:39:48;;;;;;;16.58;10.30;;;;;;;4.52;100.00;100236.72;5019743;28;20050;-70
2024/01/07 05:42:17;;;;;;;15.02;10.50;;;;;;;4.46;100.00;100233.38;5036603;28;20046;-71
2024/01/07 05:44:47;;;;;;;15.05;9.75;;;;;;;4.53;100.00;100245.44;5031266;28;20060;-70
2024/01/07 05:47:18;;;;;;;14.18;9.10;;;;;;;4.46;100.00;100244.72;5030770;28;20049;-71
2024/01/07 05:49:49;;;;;;;15.50;8.95;;;;;;;4.47;100.00;100251.69;5025543;28;20088;-71
2024/01/07 05:52:16;;;;;;;11.15;7.80;;;;;;;4.52;100.00;100260.31;5023837;28;20045;-70
2024/01/07 05:54:45;;;;;;;11.85;7.47;;;;;;;4.51;100.00;100258.59;5041551;28;20095;-72
2024/01/07 05:57:17;;;;;;;;;;;;;;;4.47;100.00;100269.19;5024326;28;20244;-72
2024/01/07 05:59:46;;;;;;;11.17;7.53;;;;;;;4.41;100.00;100264.06;5036383;28;19936;-72
2024/01/07 06:02:22;;;;;;;12.43;7.97;;;;;;;4.35;100.00;100265.09;5034435;28;20049;-72
2024/01/07 06:04:50;;;;;;;12.88;8.05;;;;;;;4.33;100.00;100277.38;5023332;28;20070;-72
2024/01/07 06:07:19;;;;;;;12.20;8.05;;;;;;;4.22;100.00;100254.03;5022276;28;20049;-71
2024/01/07 06:09:48;;;;;;;12.88;8.25;;;;;;;4.25;100.00;100275.84;5004286;28;20530;-70
2024/01/07 06:12:17;;;;;;;11.80;8.10;;;;;;;4.25;100.00;100279.28;5036210;28;20041;-71
2024/01/07 06:14:45;;;;;;;12.73;8.32;;;;;;;4.20;100.00;100278.56;5020732;28;20118;-72
2024/01/07 06:17:15;;;;;;;11.82;7.40;;;;;;;4.18;100.00;100280.34;5032835;28;20054;-72
2024/01/07 06:19:45;;;;;;;12.45;8.15;;;;;;;4.13;100.00;100292.69;5034913;28;20052;-73
2024/01/07 06:22:14;;;;;;;11.50;7.65;;;;;;;4.11;100.00;100295.34;5020207;28;20041;-72
2024/01/07 06:24:42;;;;;;;13.27;8.48;;;;;;;4.10;100.00;100305.84;5019314;28;20600;-72
2024/01/07 06:27:11;;;;;;;11.93;8.20;;;;;;;4.13;100.00;100311.03;5021927;28;20481;-72
2024/01/07 06:29:43;;;;;;;14.50;8.25;;;;;;;4.09;100.00;100315.47;5037607;28;20038;-71
2024/01/07 06:32:11;;;;;;;12.27;7.85;;;;;;;4.09;100.00;100317.25;5005272;28;20069;-71
2024/01/07 06:34:39;;;;;;;11.80;8.10;;;;;;;4.06;100.00;100331.28;5021293;28;20053;-71
2024/01/07 06:37:14;;;;;;;13.90;8.38;;;;;;;4.00;100.00;100317.44;5023234;28;20049;-71
2024/01/07 06:39:42;;;;;;;13.32;9.27;;;;;;;4.05;100.00;100341.78;5020595;28;20055;-69
2024/01/07 06:42:10;;;;;;;12.50;8.15;;;;;;;3.95;100.00;100335.88;5020568;28;20072;-72
2024/01/07 06:44:38;;;;;;;13.43;9.43;;;;;;;3.88;100.00;100334.28;5034509;28;20804;-70
2024/01/07 06:47:08;;;;;;;14.80;9.38;;;;;;;3.81;100.00;100343.16;5023107;28;20057;-71
2024/01/07 06:49:36;;;;;;;14.20;9.77;;;;;;;3.79;100.00;100337.94;5036208;28;20493;-72
2024/01/07 06:52:06;;;;;;;16.48;9.85;;;;;;;3.73;100.00;100343.31;5015607;28;20071;-71
2024/01/07 06:54:34;;;;;;;17.85;11.02;;;;;;;3.80;100.00;100354.50;5037489;28;20045;-71
2024/01/07 06:57:02;;;;;;;15.00;9.75;;;;;;;3.77;100.00;100355.47;5004306;28;20165;-71
2024/01/07 06:59:39;;;;;;;19.30;10.95;;;;;;;3.77;100.00;100362.47;5037011;28;20072;-71
2024/01/07 07:02:10;;;;;;;18.10;11.57;;;;;;;3.71;100.00;100360.81;5022538;28;20495;-73
2024/01/07 07:04:38;;;;;;;19.05;11.18;;;;;;;3.67;100.00;100361.75;5021732;28;20053;-70
2024/01/07 07:07:08;;;;;;;16.83;11.00;;;;;;;3.70;100.00;100369.56;5020962;28;20048;-70
2024/01/07 07:09:36;;;;;;;18.25;11.30;;;;;;;3.61;100.00;100355.78;5036427;28;20107;-70
2024/01/07 07:12:08;;;;;;;18.70;11.32;;;;;;;3.62;100.00;100371.44;5016129;28;20151;-71
2024/01/07 07:14:37;;;;;;;18.83;10.77;;;;;;;3.60;100.00;100373.25;5040703;28;20488;-71
2024/01/07 07:17:09;;;;;;;16.17;9.60;;;;;;;3.55;100.00;100377.72;5041158;28;20037;-71
2024/01/07 07:19:37;;;;;;;17.75;10.88;;;;;;;3.50;100.00;100380.41;5022357;28;20227;-71
2024/01/07 07:22:10;;;;;;;14.63;10.00;;;;;;;3.50;100.00;100376.91;5020724;28;20052;-71
2024/01/07 07:24:41;;;;;;;17.10;9.63;;;;;;;3.45;100.00;100389.25;5022446;28;20060;-71
2024/01/07 07:27:10;;;;;;;15.25;9.70;;;;;;;3.41;100.00;100382.34;5019711;28;20207;-71
2024/01/07 07:29:38;;;;;;;17.13;9.93;;;;;;;3.37;100.00;100404.22;5026488;28;20053;-71
2024/01/07 07:32:09;;;;;;;16.98;10.23;;;;;;;3.34;100.00;100412.13;5032759;28;20045;-71
2024/01/07 07:34:39;;;;;;;16.50;10.32;;;;;;;3.30;100.00;100400.00;5023169;28;20095;-71
2024/01/07 07:37:07;;;;;;;17.45;10.65;;;;;;;3.30;100.00;100423.56;5020816;28;20371;-71
2024/01/07 07:39:35;;;;;;;17.50;9.90;;;;;;;3.30;100.00;100428.78;5036988;28;20052;-71
2024/01/07 07:42:07;;;;;;;18.40;10.57;;;;;;;3.24;100.00;100426.25;5016379;28;20046;-71
2024/01/07 07:44:35;;;;;;;18.30;10.55;;;;;;;3.23;100.00;100429.75;5038561;28;20103;-71
2024/01/07 07:47:03;;;;;;;17.25;10.95;;;;;;;3.23;100.00;100443.72;5021671;28;20057;-71
2024/01/07 07:49:31;;;;;;;17.40;10.50;;;;;;;3.26;100.00;100448.03;5037616;28;20056;-69
2024/01/07 07:52:04;;;;;;;16.60;10.73;;;;;;;3.21;100.00;100453.34;5011483;28;20052;-71
2024/01/07 07:54:32;;;;;;;18.95;10.70;;;;;;;3.10;100.00;100448.28;5037623;28;20061;-72
2024/01/07 07:57:03;;;;;;;17.40;11.02;;;;;;;3.09;100.00;100454.41;5036623;28;20857;-72
2024/01/07 07:59:32;;;;;;;19.02;11.07;;;;;;;3.15;100.00;100454.28;5036972;28;20583;-72
2024/01/07 08:02:00;;;;;;;19.83;11.75;;;;;;;3.14;100.00;100463.06;5016969;28;20359;-71
2024/01/07 08:04:28;;;;;;;21.35;12.13;;;;;;;3.13;100.00;100463.94;5017910;28;20052;-72
2024/01/07 08:06:56;;;;;;;20.02;11.82;;;;;;;3.13;100.00;100476.16;5024132;28;20076;-71
2024/01/07 08:09:29;;;;;;;20.63;12.30;;;;;;;3.18;100.00;100469.94;5006009;28;20129;-72
2024/01/07 08:11:57;;;;;;;21.88;11.85;;;;;;;3.14;100.00;100473.50;5014570;28;20108;-72
2024/01/07 08:14:25;;;;;;;21.35;12.48;;;;;;;3.16;100.00;100476.09;5036719;28;20072;-71
2024/01/07 08:16:53;;;;;;;21.60;12.52;;;;;;;3.16;100.00;100478.69;5020113;28;20080;-70
2024/01/07 08:19:24;;;;;;;26.05;12.93;;;;;;;3.28;100.00;100480.28;5017976;28;20132;-71
2024/01/07 08:21:56;;;;;;;24.35;13.15;;;;;;;3.40;100.00;100499.25;5016004;28;20052;-72
2024/01/07 08:24:24;;;;;;;27.90;14.43;;;;;;;3.39;100.00;100483.56;5036333;28;20061;-70
2024/01/07 08:26:54;;;;;;;23.65;12.13;;;;;;;3.35;100.00;100494.97;5022055;28;20049;-73
2024/01/07 08:29:22;;;;;;;24.27;13.60;;;;;;;3.27;100.00;100489.03;5016627;28;20050;-71
2024/01/07 08:31:53;;;;;;;26.48;13.73;;;;;;;3.18;100.00;100490.00;5015929;28;20322;-72
2024/01/07 08:34:21;;;;;;;23.25;12.85;;;;;;;3.14;100.00;100483.97;5023765;28;20049;-71
2024/01/07 08:36:50;;;;;;;22.52;13.98;;;;;;;3.19;100.00;100499.59;5019317;28;20049;-72
2024/01/07 08:39:19;;;;;;;21.55;12.52;;;;;;;3.16;100.00;100513.56;5020524;28;20065;-73
2024/01/07 08:41:49;;;;;;;22.73;12.40;;;;;;;3.15;100.00;100506.63;4999720;28;20107;-71
2024/01/07 08:44:18;;;;;;;23.35;12.75;;;;;;;3.14;100.00;100515.38;5020816;28;20118;-72
2024/01/07 08:46:46;;;;;;;21.27;12.18;;;;;;;3.11;100.00;100502.34;5021742;28;20053;-73
2024/01/07 08:49:14;;;;;;;22.27;12.25;;;;;;;3.24;100.00;100517.84;5035681;28;20045;-70
2024/01/07 08:51:43;;;;;;;23.33;13.10;;;;;;;3.25;100.00;100520.44;5013607;28;20523;-71
2024/01/07 08:54:12;;;;;;;23.55;12.93;;;;;;;3.25;100.00;100512.59;5018329;28;20062;-70
2024/01/07 08:56:40;;;;;;;23.13;13.65;;;;;;;3.28;100.00;100540.47;5034395;28;20510;-71
2024/01/07 08:59:09;;;;;;;21.70;13.52;;;;;;;3.31;100.00;100520.34;5018888;28;20046;-71
2024/01/07 09:01:37;;;;;;;20.85;11.73;;;;;;;3.31;100.00;100522.09;5010780;28;20048;-71
2024/01/07 09:04:05;;;;;;;22.17;12.60;;;;;;;3.35;100.00;100527.25;5035349;28;20085;-71
2024/01/07 09:06:33;;;;;;;22.08;13.45;;;;;;;3.36;100.00;100541.22;5038884;28;20418;-71
2024/01/07 09:09:01;;;;;;;22.42;12.52;;;;;;;3.40;100.00;100530.69;5032980;28;20066;-70
2024/01/07 09:11:30;;;;;;;22.17;12.07;;;;;;;3.49;100.00;100534.88;5039589;28;20516;-70
2024/01/07 09:13:59;;;;;;;20.95;12.00;;;;;;;3.46;100.00;100548.06;5028080;28;20045;-71
2024/01/07 09:16:27;;;;;;;17.55;11.30;;;;;;;3.41;100.00;100544.63;5031986;28;20041;-71
2024/01/07 09:18:57;;;;;;;18.88;11.68;;;;;;;3.38;100.00;100549.91;5038994;28;20135;-70
2024/01/07 09:21:27;;;;;;;17.45;10.73;;;;;;;3.34;100.00;100553.44;5033635;28;20076;-72
2024/01/07 09:23:54;;;;;;;18.90;11.55;;;;;;;3.36;100.00;100562.16;5021608;28;20136;-70
2024/01/07 09:26:24;;;;;;;17.05;11.30;;;;;;;3.36;100.00;100570.88;5039803;28;20137;-71
2024/01/07 09:28:52;;;;;;;17.33;11.05;;;;;;;3.41;100.00;100583.91;5038264;28;20066;-71
2024/01/07 09:31:21;;;;;;;13.82;9.63;;;;;;;3.29;100.00;100571.88;5017241;28;20076;-71
2024/01/07 09:33:49;;;;;;;15.27;10.07;;;;;;;3.28;100.00;100580.59;5005107;28;20050;-71
2024/01/07 09:36:20;;;;;;;14.57;9.55;;;;;;;3.20;100.00;100571.97;5039276;28;20045;-72
2024/01/07 09:38:58;;;;;;;14.40;9.43;;;;;;;3.34;100.00;100590.97;5024088;28;20085;-71
2024/01/07 09:41:26;;;;;;;15.00;9.23;;;;;;;3.30;100.00;100581.44;5033811;28;20373;-72
2024/01/07 09:43:57;;;;;;;12.23;8.55;;;;;;;3.34;100.00;100590.97;5016288;28;20506;-72
2024/01/07 09:46:27;;;;;;;12.23;8.23;;;;;;;3.34;100.00;100593.56;5040192;28;20049;-71
2024/01/07 09:48:56;;;;;;;12.35;8.30;;;;;;;3.35;100.00;100584.84;5040457;28;20112;-71
2024/01/07 09:51:30;;;;;;;14.00;8.55;;;;;;;3.42;100.00;100594.34;5021039;28;20095;-72
2024/01/07 09:54:05;;;;;;;11.52;7.57;;;;;;;3.38;100.00;100591.78;5019771;28;20041;-71
2024/01/07 09:56:40;;;;;;;10.20;7.57;;;;;;;3.41;100.00;100586.50;5021037;28;20045;-70
2024/01/07 09:59:09;;;;;;;12.40;7.95;;;;;;;3.48;100.00;100593.38;5022306;28;20049;-71
2024/01/07 10:01:41;;;;;;;12.05;8.10;;;;;;;3.52;100.00;100595.94;5019085;28;20405;-71
2024/01/07 10:04:09;;;;;;;9.00;6.57;;;;;;;3.45;100.00;100586.47;5015512;28;20042;-71
2024/01/07 10:06:40;;;;;;;11.38;7.00;;;;;;;3.46;100.00;100598.63;5019592;28;20068;-71
2024/01/07 10:09:10;;;;;;;10.57;7.63;;;;;;;3.34;100.00;100600.56;5035974;28;20096;-71
2024/01/07 10:11:38;;;;;;;10.82;7.30;;;;;;;3.36;100.00;100607.50;5034369;28;22930;-71
2024/01/07 10:14:07;;;;;;;9.65;7.32;;;;;;;3.21;100.00;100612.09;5016792;28;20060;-70
2024/01/07 10:16:38;;;;;;;11.65;7.88;;;;;;;3.09;100.00;100614.00;5021941;28;20045;-72
2024/01/07 10:19:07;;;;;;;11.13;7.82;;;;;;;3.03;100.00;100613.19;5021026;28;20143;-71
2024/01/07 10:21:38;;;;;;;11.32;8.23;;;;;;;2.98;100.00;100615.91;5035547;28;20038;-71
2024/01/07 10:24:17;;;;;;;10.30;7.78;;;;;;;2.93;100.00;100622.06;5019547;28;20033;-74
2024/01/07 10:26:45;;;;;;;11.00;7.80;;;;;;;2.93;100.00;100624.66;5022537;28;20049;-72
2024/01/07 10:29:15;;;;;;;11.23;8.32;;;;;;;2.89;100.00;100629.06;5021188;28;20104;-72
2024/01/07 10:31:44;;;;;;;10.93;7.93;;;;;;;2.87;100.00;100620.38;5036779;28;20054;-71
2024/01/07 10:34:15;;;;;;;10.55;7.68;;;;;;;2.85;100.00;100626.50;5021113;28;20077;-71
2024/01/07 10:36:47;;;;;;;12.30;7.90;;;;;;;2.86;100.00;100629.09;5018128;28;20073;-73
2024/01/07 10:39:26;;;;;;;12.85;8.73;;;;;;;2.85;100.00;100635.22;5022976;28;20132;-71
2024/01/07 10:41:57;;;;;;;10.85;7.93;;;;;;;2.83;100.00;100617.84;5023774;28;20140;-73
2024/01/07 10:44:28;;;;;;;12.63;8.38;;;;;;;2.73;100.00;100620.53;5022089;28;20053;-71
2024/01/07 10:46:59;;;;;;;11.88;8.23;;;;;;;2.81;100.00;100630.94;5026904;28;20061;-72
2024/01/07 10:49:28;;;;;;;;;;;;;;;2.82;100.00;100632.66;5028085;28;20053;-71
2024/01/07 10:52:05;;;;;;;12.93;8.45;;;;;;;3.00;100.00;100640.25;5023158;28;19959;-73
2024/01/07 10:54:36;;;;;;;14.82;9.93;;;;;;;2.97;100.00;100622.00;5024404;28;20049;-70
2024/01/07 10:57:10;;;;;;;13.75;9.30;;;;;;;2.94;100.00;100629.03;5021682;28;20083;-71
2024/01/07 10:59:40;;;;;;;13.25;9.45;;;;;;;2.86;100.00;100628.22;5007041;28;20053;-72
2024/01/07 11:02:13;;;;;;;15.57;8.88;;;;;;;2.74;100.00;100613.56;5018910;28;20049;-71
2024/01/07 11:04:52;;;;;;;13.55;9.02;;;;;;;2.83;100.00;100626.53;5018456;28;20042;-71
2024/01/07 11:07:34;;;;;;;12.63;8.45;;;;;;;2.89;100.00;100629.06;5023077;28;20060;-73
2024/01/07 11:10:11;;;;;;;16.42;9.85;;;;;;;2.94;100.00;100629.03;5039748;28;20064;-73
2024/01/07 11:12:39;;;;;;;12.75;8.20;;;;;;;2.95;100.00;100618.53;5017194;28;20123;-70
2024/01/07 11:15:09;;;;;;;14.73;8.27;;;;;;;3.07;100.00;100621.00;5003796;28;20717;-69
2024/01/07 11:17:46;;;;;;;12.18;8.52;;;;;;;3.11;100.00;100630.53;5008402;28;20072;-72
2024/01/07 11:20:22;;;;;;;13.90;9.25;;;;;;;3.22;100.00;100626.91;5024304;28;20085;-71
2024/01/07 11:22:51;;;;;;;14.02;8.57;;;;;;;3.25;100.00;100626.88;5034931;28;20053;-71
2024/01/07 11:25:32;;;;;;;12.88;8.27;;;;;;;3.33;100.00;100627.63;5037320;28;20136;-71
2024/01/07 11:28:02;;;;;;;10.95;8.05;;;;;;;3.32;100.00;100623.28;4997928;28;20053;-71
2024/01/07 11:30:39;;;;;;;12.02;8.20;;;;;;;3.31;100.00;100632.00;5019364;28;20041;-71